Little Plymouth, Virginia
Current Conditions -  °F | °C
As of 10:55 PM on Saturday 22 Nov 2014 (Local Time) from KFYJ Reporting Station
Clear Clear  
Wind Chill: 39°   Ceiling: Unl
Heat Index: 39°   Visibility: 10mi
Dew Point: 22°   Wind: 3mph
Humidity: 51%   Direction: 160°SSE
Pressure: 30.35"   Gusts: NA
Location:  37.63°N, 76.79°W
Report Text: KFYJ 230355Z AUTO 16003KT 10SM CLR 04/M06 A3035 RMK AO2 T00371057
Loading
Personal Weather Stations






























Interactive Weather Map New forecast layout! Learn more

10-Day Weather Forecast

Advertisements
Track Severe Weather on mobile